sensor_id;sensor_type;location;lat;lon;timestamp;pressure;altitude;pressure_sealevel;temperature;humidity
2875;BME280;1445;52.600;13.328;2023-02-02T00:01:52;100130.63;;;4.15;100.00
2875;BME280;1445;52.600;13.328;2023-02-02T00:04:20;100135.53;;;4.18;100.00
2875;BME280;1445;52.600;13.328;2023-02-02T00:06:46;100149.97;;;4.23;100.00
2875;BME280;1445;52.600;13.328;2023-02-02T00:09:14;100135.22;;;4.24;100.00
2875;BME280;1445;52.600;13.328;2023-02-02T00:11:41;100143.69;;;4.28;100.00
2875;BME280;1445;52.600;13.328;2023-02-02T00:14:07;100123.78;;;4.33;100.00
2875;BME280;1445;52.600;13.328;2023-02-02T00:16:49;100130.31;;;4.37;100.00
2875;BME280;1445;52.600;13.328;2023-02-02T00:19:21;100137.69;;;4.36;100.00
2875;BME280;1445;52.600;13.328;2023-02-02T00:21:47;100136.59;;;4.42;100.00
2875;BME280;1445;52.600;13.328;2023-02-02T00:24:14;100099.47;;;4.41;100.00
2875;BME280;1445;52.600;13.328;2023-02-02T00:26:45;100112.84;;;4.38;100.00
2875;BME280;1445;52.600;13.328;2023-02-02T00:29:14;100125.94;;;4.46;100.00
2875;BME280;1445;52.600;13.328;2023-02-02T00:31:40;100117.19;;;4.44;100.00
2875;BME280;1445;52.600;13.328;2023-02-02T00:34:05;100125.38;;;4.39;100.00
2875;BME280;1445;52.600;13.328;2023-02-02T00:36:31;100107.34;;;4.48;100.00
2875;BME280;1445;52.600;13.328;2023-02-02T00:38:56;100092.09;;;4.37;100.00
2875;BME280;1445;52.600;13.328;2023-02-02T00:41:22;100103.84;;;4.32;100.00
2875;BME280;1445;52.600;13.328;2023-02-02T00:43:47;100117.50;;;4.27;100.00
2875;BME280;1445;52.600;13.328;2023-02-02T00:46:33;100097.56;;;4.37;100.00
2875;BME280;1445;52.600;13.328;2023-02-02T00:48:58;100134.41;;;4.29;100.00
2875;BME280;1445;52.600;13.328;2023-02-02T00:51:23;100111.22;;;4.26;100.00
2875;BME280;1445;52.600;13.328;2023-02-02T00:53:49;100101.69;;;4.14;100.00
2875;BME280;1445;52.600;13.328;2023-02-02T00:56:14;100125.16;;;4.10;100.00
2875;BME280;1445;52.600;13.328;2023-02-02T00:58:40;100150.78;;;4.14;100.00
2875;BME280;1445;52.600;13.328;2023-02-02T01:01:14;100127.88;;;4.10;100.00
2875;BME280;1445;52.600;13.328;2023-02-02T01:03:40;100154.88;;;4.06;100.00
2875;BME280;1445;52.600;13.328;2023-02-02T01:06:05;100201.78;;;4.13;100.00
2875;BME280;1445;52.600;13.328;2023-02-02T01:08:30;100143.97;;;4.06;100.00
2875;BME280;1445;52.600;13.328;2023-02-02T01:10:58;100188.97;;;4.09;100.00
2875;BME280;1445;52.600;13.328;2023-02-02T01:13:24;100172.31;;;4.00;100.00
2875;BME280;1445;52.600;13.328;2023-02-02T01:15:57;100166.06;;;3.99;100.00
2875;BME280;1445;52.600;13.328;2023-02-02T01:18:23;100163.88;;;4.01;100.00
2875;BME280;1445;52.600;13.328;2023-02-02T01:21:00;100173.44;;;3.94;100.00
2875;BME280;1445;52.600;13.328;2023-02-02T01:23:26;100157.06;;;3.99;100.00
2875;BME280;1445;52.600;13.328;2023-02-02T01:25:56;100181.06;;;4.02;100.00
2875;BME280;1445;52.600;13.328;2023-02-02T01:28:23;100170.16;;;3.97;100.00
2875;BME280;1445;52.600;13.328;2023-02-02T01:30:49;100181.63;;;3.94;100.00
2875;BME280;1445;52.600;13.328;2023-02-02T01:33:15;100158.97;;;3.88;100.00
2875;BME280;1445;52.600;13.328;2023-02-02T01:35:52;100178.34;;;3.87;100.00
2875;BME280;1445;52.600;13.328;2023-02-02T01:38:19;100178.59;;;3.95;100.00
2875;BME280;1445;52.600;13.328;2023-02-02T01:40:45;100167.97;;;3.99;100.00
2875;BME280;1445;52.600;13.328;2023-02-02T01:45:51;100172.88;;;4.02;100.00
2875;BME280;1445;52.600;13.328;2023-02-02T01:48:19;100198.25;;;4.02;100.00
2875;BME280;1445;52.600;13.328;2023-02-02T01:50:46;100164.44;;;3.98;100.00
2875;BME280;1445;52.600;13.328;2023-02-02T01:53:13;100193.03;;;3.96;100.00
2875;BME280;1445;52.600;13.328;2023-02-02T01:55:40;100250.06;;;3.97;100.00
2875;BME280;1445;52.600;13.328;2023-02-02T01:58:20;100193.88;;;3.96;100.00
2875;BME280;1445;52.600;13.328;2023-02-02T02:00:47;100203.41;;;3.99;100.00
2875;BME280;1445;52.600;13.328;2023-02-02T02:03:16;100203.16;;;4.00;100.00
2875;BME280;1445;52.600;13.328;2023-02-02T02:06:04;100189.81;;;4.04;100.00
2875;BME280;1445;52.600;13.328;2023-02-02T02:11:03;100191.97;;;4.07;100.00
2875;BME280;1445;52.600;13.328;2023-02-02T02:13:30;100185.97;;;4.05;100.00
2875;BME280;1445;52.600;13.328;2023-02-02T02:16:45;100223.63;;;4.13;100.00
2875;BME280;1445;52.600;13.328;2023-02-02T02:21:54;100199.59;;;4.30;100.00
2875;BME280;1445;52.600;13.328;2023-02-02T02:36:29;100210.50;;;4.61;100.00
2875;BME280;1445;52.600;13.328;2023-02-02T02:41:22;100189.75;;;4.70;100.00
2875;BME280;1445;52.600;13.328;2023-02-02T02:43:53;100185.34;;;4.79;100.00
2875;BME280;1445;52.600;13.328;2023-02-02T02:46:20;100235.59;;;4.84;100.00
2875;BME280;1445;52.600;13.328;2023-02-02T02:48:46;100177.16;;;4.85;100.00
2875;BME280;1445;52.600;13.328;2023-02-02T02:51:48;100182.88;;;4.88;100.00
2875;BME280;1445;52.600;13.328;2023-02-02T02:54:26;100164.59;;;4.89;100.00
2875;BME280;1445;52.600;13.328;2023-02-02T03:05:04;100192.97;;;4.88;100.00
2875;BME280;1445;52.600;13.328;2023-02-02T03:07:40;100218.66;;;4.87;100.00
2875;BME280;1445;52.600;13.328;2023-02-02T03:10:08;100205.25;;;4.95;100.00
2875;BME280;1445;52.600;13.328;2023-02-02T03:12:43;100217.25;;;4.99;100.00
2875;BME280;1445;52.600;13.328;2023-02-02T03:15:09;100220.28;;;4.93;100.00
2875;BME280;1445;52.600;13.328;2023-02-02T03:17:35;100220.81;;;5.00;100.00
2875;BME280;1445;52.600;13.328;2023-02-02T03:20:00;100257.69;;;4.97;100.00
2875;BME280;1445;52.600;13.328;2023-02-02T03:22:25;100228.19;;;4.99;100.00
2875;BME280;1445;52.600;13.328;2023-02-02T03:24:51;100250.31;;;4.98;100.00
2875;BME280;1445;52.600;13.328;2023-02-02T03:27:17;100243.50;;;4.90;100.00
2875;BME280;1445;52.600;13.328;2023-02-02T03:29:43;100256.91;;;4.92;100.00
2875;BME280;1445;52.600;13.328;2023-02-02T03:32:08;100261.81;;;4.90;100.00
2875;BME280;1445;52.600;13.328;2023-02-02T03:34:33;100304.94;;;4.88;100.00
2875;BME280;1445;52.600;13.328;2023-02-02T03:36:59;100265.91;;;4.82;100.00
2875;BME280;1445;52.600;13.328;2023-02-02T03:39:24;100267.00;;;4.76;100.00
2875;BME280;1445;52.600;13.328;2023-02-02T03:41:50;100274.66;;;4.79;100.00
2875;BME280;1445;52.600;13.328;2023-02-02T03:44:15;100278.22;;;4.74;100.00
2875;BME280;1445;52.600;13.328;2023-02-02T03:46:41;100301.69;;;4.75;100.00
2875;BME280;1445;52.600;13.328;2023-02-02T03:49:06;100295.41;;;4.75;100.00
2875;BME280;1445;52.600;13.328;2023-02-02T03:51:32;100290.22;;;4.73;100.00
2875;BME280;1445;52.600;13.328;2023-02-02T03:53:57;100306.34;;;4.75;100.00
2875;BME280;1445;52.600;13.328;2023-02-02T03:56:23;100316.69;;;4.73;100.00
2875;BME280;1445;52.600;13.328;2023-02-02T03:58:48;100315.06;;;4.77;100.00
2875;BME280;1445;52.600;13.328;2023-02-02T04:01:14;100307.72;;;4.77;100.00
2875;BME280;1445;52.600;13.328;2023-02-02T04:03:40;100316.72;;;4.78;100.00
2875;BME280;1445;52.600;13.328;2023-02-02T04:06:06;100344.00;;;4.78;100.00
2875;BME280;1445;52.600;13.328;2023-02-02T04:08:31;100322.44;;;4.76;100.00
2875;BME280;1445;52.600;13.328;2023-02-02T04:10:58;100333.63;;;4.75;100.00
2875;BME280;1445;52.600;13.328;2023-02-02T04:13:23;100343.47;;;4.76;100.00
2875;BME280;1445;52.600;13.328;2023-02-02T04:15:59;100348.66;;;4.77;100.00
2875;BME280;1445;52.600;13.328;2023-02-02T04:18:25;100353.03;;;4.78;100.00
2875;BME280;1445;52.600;13.328;2023-02-02T04:20:55;100361.22;;;4.78;100.00
2875;BME280;1445;52.600;13.328;2023-02-02T04:23:21;100358.47;;;4.78;100.00
2875;BME280;1445;52.600;13.328;2023-02-02T04:25:50;100368.88;;;4.82;100.00
2875;BME280;1445;52.600;13.328;2023-02-02T04:28:16;100372.41;;;4.82;100.00
2875;BME280;1445;52.600;13.328;2023-02-02T04:30:41;100371.31;;;4.83;100.00
2875;BME280;1445;52.600;13.328;2023-02-02T04:33:06;100376.78;;;4.88;100.00
2875;BME280;1445;52.600;13.328;2023-02-02T04:35:32;100390.72;;;4.92;100.00
2875;BME280;1445;52.600;13.328;2023-02-02T04:37:57;100390.72;;;4.87;100.00
2875;BME280;1445;52.600;13.328;2023-02-02T04:40:23;100375.69;;;4.89;100.00
2875;BME280;1445;52.600;13.328;2023-02-02T04:42:48;100385.78;;;4.94;100.00
2875;BME280;1445;52.600;13.328;2023-02-02T04:45:13;100389.09;;;4.96;100.00
2875;BME280;1445;52.600;13.328;2023-02-02T04:47:39;100384.69;;;4.95;100.00
2875;BME280;1445;52.600;13.328;2023-02-02T04:50:05;100401.06;;;4.95;100.00
2875;BME280;1445;52.600;13.328;2023-02-02T04:52:31;100391.28;;;4.99;100.00
2875;BME280;1445;52.600;13.328;2023-02-02T04:54:57;100392.09;;;4.99;100.00
2875;BME280;1445;52.600;13.328;2023-02-02T04:57:22;100392.34;;;5.03;100.00
2875;BME280;1445;52.600;13.328;2023-02-02T04:59:47;100402.19;;;5.04;100.00
2875;BME280;1445;52.600;13.328;2023-02-02T05:02:13;100403.00;;;5.05;100.00
2875;BME280;1445;52.600;13.328;2023-02-02T05:04:38;100412.84;;;5.06;100.00
2875;BME280;1445;52.600;13.328;2023-02-02T05:07:04;100457.91;;;5.03;100.00
2875;BME280;1445;52.600;13.328;2023-02-02T05:09:29;100415.03;;;4.98;100.00
2875;BME280;1445;52.600;13.328;2023-02-02T05:11:54;100411.75;;;4.96;100.00
2875;BME280;1445;52.600;13.328;2023-02-02T05:14:20;100440.44;;;4.99;100.00
2875;BME280;1445;52.600;13.328;2023-02-02T05:16:45;100451.63;;;4.92;100.00
2875;BME280;1445;52.600;13.328;2023-02-02T05:19:11;100437.41;;;4.90;100.00
2875;BME280;1445;52.600;13.328;2023-02-02T05:21:37;100440.69;;;4.87;100.00
2875;BME280;1445;52.600;13.328;2023-02-02T05:24:02;100446.97;;;4.83;100.00
2875;BME280;1445;52.600;13.328;2023-02-02T05:26:28;100437.41;;;4.90;100.00
2875;BME280;1445;52.600;13.328;2023-02-02T05:28:55;100450.81;;;4.97;100.00
2875;BME280;1445;52.600;13.328;2023-02-02T05:31:20;100457.09;;;5.02;100.00
2875;BME280;1445;52.600;13.328;2023-02-02T05:33:46;100455.47;;;5.07;100.00
2875;BME280;1445;52.600;13.328;2023-02-02T05:36:11;100466.38;;;5.07;100.00
2875;BME280;1445;52.600;13.328;2023-02-02T05:38:38;100467.22;;;5.02;100.00
2875;BME280;1445;52.600;13.328;2023-02-02T05:41:03;100490.44;;;5.10;100.00
2875;BME280;1445;52.600;13.328;2023-02-02T05:43:30;100469.66;;;5.09;100.00
2875;BME280;1445;52.600;13.328;2023-02-02T05:45:56;100480.31;;;5.10;100.00
2875;BME280;1445;52.600;13.328;2023-02-02T05:48:22;100478.94;;;5.08;100.00
2875;BME280;1445;52.600;13.328;2023-02-02T05:51:05;100476.22;;;5.02;100.00
2875;BME280;1445;52.600;13.328;2023-02-02T05:53:34;100483.59;;;5.02;100.00
2875;BME280;1445;52.600;13.328;2023-02-02T05:56:00;100492.06;;;5.00;100.00
2875;BME280;1445;52.600;13.328;2023-02-02T05:58:25;100497.25;;;5.02;100.00
2875;BME280;1445;52.600;13.328;2023-02-02T06:00:52;100492.06;;;5.06;100.00
2875;BME280;1445;52.600;13.328;2023-02-02T06:03:18;100486.06;;;4.98;100.00
2875;BME280;1445;52.600;13.328;2023-02-02T06:05:44;100492.31;;;4.94;100.00
2875;BME280;1445;52.600;13.328;2023-02-02T06:08:09;100503.25;;;4.94;100.00
2875;BME280;1445;52.600;13.328;2023-02-02T06:10:38;100513.63;;;4.97;100.00
2875;BME280;1445;52.600;13.328;2023-02-02T06:13:03;100518.81;;;4.93;100.00
2875;BME280;1445;52.600;13.328;2023-02-02T06:15:29;100537.38;;;4.91;100.00
2875;BME280;1445;52.600;13.328;2023-02-02T06:17:55;100535.47;;;4.97;100.00
2875;BME280;1445;52.600;13.328;2023-02-02T06:20:22;100530.28;;;4.90;100.00
2875;BME280;1445;52.600;13.328;2023-02-02T06:22:47;100548.56;;;4.95;100.00
2875;BME280;1445;52.600;13.328;2023-02-02T06:25:13;100544.47;;;4.87;100.00
2875;BME280;1445;52.600;13.328;2023-02-02T06:27:38;100542.28;;;4.89;100.00
2875;BME280;1445;52.600;13.328;2023-02-02T06:30:04;100553.75;;;4.86;100.00
2875;BME280;1445;52.600;13.328;2023-02-02T06:32:29;100549.09;;;4.87;100.00
2875;BME280;1445;52.600;13.328;2023-02-02T06:34:55;100576.16;;;4.88;100.00
2875;BME280;1445;52.600;13.328;2023-02-02T06:37:20;100569.84;;;4.88;100.00
2875;BME280;1445;52.600;13.328;2023-02-02T06:39:46;100568.22;;;4.87;100.00
2875;BME280;1445;52.600;13.328;2023-02-02T06:42:11;100596.88;;;4.84;100.00
2875;BME280;1445;52.600;13.328;2023-02-02T06:44:37;100581.06;;;4.81;100.00
2875;BME280;1445;52.600;13.328;2023-02-02T06:47:02;100579.69;;;4.84;100.00
2875;BME280;1445;52.600;13.328;2023-02-02T06:49:27;100585.66;;;4.81;100.00
2875;BME280;1445;52.600;13.328;2023-02-02T06:51:53;100589.25;;;4.81;100.00
2875;BME280;1445;52.600;13.328;2023-02-02T06:54:18;100601.81;;;4.82;100.00
2875;BME280;1445;52.600;13.328;2023-02-02T06:56:44;100608.66;;;4.85;100.00
2875;BME280;1445;52.600;13.328;2023-02-02T06:59:09;100610.81;;;4.77;100.00
2875;BME280;1445;52.600;13.328;2023-02-02T07:01:34;100610.78;;;4.72;100.00
2875;BME280;1445;52.600;13.328;2023-02-02T07:04:00;100618.94;;;4.67;100.00
2875;BME280;1445;52.600;13.328;2023-02-02T07:06:27;100618.72;;;4.74;100.00
2875;BME280;1445;52.600;13.328;2023-02-02T07:08:53;100610.78;;;4.72;100.00
2875;BME280;1445;52.600;13.328;2023-02-02T07:11:20;100634.25;;;4.73;100.00
2875;BME280;1445;52.600;13.328;2023-02-02T07:13:47;100637.03;;;4.78;100.00
2875;BME280;1445;52.600;13.328;2023-02-02T07:16:14;100635.94;;;4.79;100.00
2875;BME280;1445;52.600;13.328;2023-02-02T07:18:40;100645.47;;;4.77;100.00
2875;BME280;1445;52.600;13.328;2023-02-02T07:21:07;100653.41;;;4.84;100.00
2875;BME280;1445;52.600;13.328;2023-02-02T07:23:33;100658.06;;;4.78;100.00
2875;BME280;1445;52.600;13.328;2023-02-02T07:26:01;100666.78;;;4.80;100.00
2875;BME280;1445;52.600;13.328;2023-02-02T07:28:27;100664.84;;;4.75;100.00
2875;BME280;1445;52.600;13.328;2023-02-02T07:30:52;100674.91;;;4.65;100.00
2875;BME280;1445;52.600;13.328;2023-02-02T07:33:18;100674.63;;;4.66;100.00
2875;BME280;1445;52.600;13.328;2023-02-02T07:35:43;100676.53;;;4.66;100.00
2875;BME280;1445;52.600;13.328;2023-02-02T07:38:09;100675.13;;;4.58;100.00
2875;BME280;1445;52.600;13.328;2023-02-02T07:40:34;100681.69;;;4.62;100.00
2875;BME280;1445;52.600;13.328;2023-02-02T07:42:59;100681.16;;;4.60;100.00
2875;BME280;1445;52.600;13.328;2023-02-02T07:45:26;100681.97;;;4.61;100.00
2875;BME280;1445;52.600;13.328;2023-02-02T07:47:58;100685.22;;;4.58;100.00
2875;BME280;1445;52.600;13.328;2023-02-02T07:50:26;100676.75;;;4.54;100.00
2875;BME280;1445;52.600;13.328;2023-02-02T07:52:53;100696.75;;;4.65;100.00
2875;BME280;1445;52.600;13.328;2023-02-02T07:55:19;100686.63;;;4.60;100.00
2875;BME280;1445;52.600;13.328;2023-02-02T07:57:44;100691.53;;;4.63;100.00
2875;BME280;1445;52.600;13.328;2023-02-02T08:00:10;100692.09;;;4.65;100.00
2875;BME280;1445;52.600;13.328;2023-02-02T08:02:36;100715.34;;;4.68;100.00
2875;BME280;1445;52.600;13.328;2023-02-02T08:05:01;100714.16;;;4.59;100.00
2875;BME280;1445;52.600;13.328;2023-02-02T08:07:27;100725.66;;;4.61;100.00
2875;BME280;1445;52.600;13.328;2023-02-02T08:09:52;100724.56;;;4.62;100.00
2875;BME280;1445;52.600;13.328;2023-02-02T08:12:18;100728.13;;;4.62;100.00
2875;BME280;1445;52.600;13.328;2023-02-02T08:14:45;100735.22;;;4.63;100.00
2875;BME280;1445;52.600;13.328;2023-02-02T08:17:11;100735.19;;;4.58;100.00
2875;BME280;1445;52.600;13.328;2023-02-02T08:19:37;100745.59;;;4.61;100.00
2875;BME280;1445;52.600;13.328;2023-02-02T08:22:02;100749.97;;;4.62;100.00
2875;BME280;1445;52.600;13.328;2023-02-02T08:24:28;100754.94;;;4.70;100.00
2875;BME280;1445;52.600;13.328;2023-02-02T08:26:53;100765.31;;;4.73;100.00
2875;BME280;1445;52.600;13.328;2023-02-02T08:29:19;100777.41;;;4.77;100.00
2875;BME280;1445;52.600;13.328;2023-02-02T08:31:44;100776.59;;;4.82;100.00
2875;BME280;1445;52.600;13.328;2023-02-02T08:34:11;100766.16;;;4.74;100.00
2875;BME280;1445;52.600;13.328;2023-02-02T08:36:38;100767.59;;;4.82;100.00
2875;BME280;1445;52.600;13.328;2023-02-02T08:39:09;100780.72;;;4.85;100.00
2875;BME280;1445;52.600;13.328;2023-02-02T08:41:36;100774.75;;;4.93;100.00
2875;BME280;1445;52.600;13.328;2023-02-02T08:44:05;100785.69;;;4.98;100.00
2875;BME280;1445;52.600;13.328;2023-02-02T08:46:30;100780.81;;;5.00;100.00
2875;BME280;1445;52.600;13.328;2023-02-02T08:48:56;100779.50;;;5.08;100.00
2875;BME280;1445;52.600;13.328;2023-02-02T08:51:21;100776.53;;;5.19;100.00
2875;BME280;1445;52.600;13.328;2023-02-02T08:53:47;100787.56;;;5.35;100.00
2875;BME280;1445;52.600;13.328;2023-02-02T08:56:17;100779.44;;;5.50;100.00
2875;BME280;1445;52.600;13.328;2023-02-02T08:58:45;100778.13;;;5.68;100.00
2875;BME280;1445;52.600;13.328;2023-02-02T09:01:13;100776.22;;;5.68;100.00
2875;BME280;1445;52.600;13.328;2023-02-02T09:03:39;100787.97;;;5.59;100.00
2875;BME280;1445;52.600;13.328;2023-02-02T09:06:17;100774.72;;;5.35;100.00
2875;BME280;1445;52.600;13.328;2023-02-02T09:08:43;100779.13;;;5.41;100.00
2875;BME280;1445;52.600;13.328;2023-02-02T09:11:15;100785.94;;;5.39;100.00
2875;BME280;1445;52.600;13.328;2023-02-02T09:13:42;100795.53;;;5.41;100.00
2875;BME280;1445;52.600;13.328;2023-02-02T09:16:10;100805.91;;;5.39;100.00
2875;BME280;1445;52.600;13.328;2023-02-02T09:18:36;100788.97;;;5.47;100.00
2875;BME280;1445;52.600;13.328;2023-02-02T09:21:04;100802.97;;;5.56;100.00
2875;BME280;1445;52.600;13.328;2023-02-02T09:23:31;100800.81;;;5.68;100.00
2875;BME280;1445;52.600;13.328;2023-02-02T09:26:14;100805.38;;;5.47;100.00
2875;BME280;1445;52.600;13.328;2023-02-02T09:28:44;100804.06;;;5.55;100.00
2875;BME280;1445;52.600;13.328;2023-02-02T09:31:09;100816.38;;;5.58;100.00
2875;BME280;1445;52.600;13.328;2023-02-02T09:33:35;100814.72;;;5.52;100.00
2875;BME280;1445;52.600;13.328;2023-02-02T09:36:09;100828.69;;;5.60;100.00
2875;BME280;1445;52.600;13.328;2023-02-02T09:38:35;100824.31;;;5.59;100.00
2875;BME280;1445;52.600;13.328;2023-02-02T09:41:34;100844.28;;;5.65;100.00
2875;BME280;1445;52.600;13.328;2023-02-02T09:52:32;100849.13;;;5.95;100.00
2875;BME280;1445;52.600;13.328;2023-02-02T09:55:28;100837.56;;;5.88;100.00
2875;BME280;1445;52.600;13.328;2023-02-02T09:57:59;100843.31;;;5.86;100.00
2875;BME280;1445;52.600;13.328;2023-02-02T10:00:38;100839.22;;;5.89;100.00
2875;BME280;1445;52.600;13.328;2023-02-02T10:03:15;100843.31;;;5.86;100.00
2875;BME280;1445;52.600;13.328;2023-02-02T10:06:10;100853.41;;;5.81;100.00
2875;BME280;1445;52.600;13.328;2023-02-02T10:08:55;100850.09;;;5.73;100.00
2875;BME280;1445;52.600;13.328;2023-02-02T10:11:29;100852.84;;;5.73;100.00
2875;BME280;1445;52.600;13.328;2023-02-02T10:14:02;100853.41;;;5.81;100.00
2875;BME280;1445;52.600;13.328;2023-02-02T10:16:30;100857.25;;;5.85;100.00
2875;BME280;1445;52.600;13.328;2023-02-02T10:24:19;100857.94;;;6.07;100.00
2875;BME280;1445;52.600;13.328;2023-02-02T10:26:49;100857.44;;;6.26;100.00
2875;BME280;1445;52.600;13.328;2023-02-02T10:29:24;100853.38;;;6.54;100.00
2875;BME280;1445;52.600;13.328;2023-02-02T10:45:46;100861.88;;;6.57;100.00
2875;BME280;1445;52.600;13.328;2023-02-02T10:48:16;100870.91;;;6.58;100.00
2875;BME280;1445;52.600;13.328;2023-02-02T10:50:47;100875.03;;;6.60;100.00
2875;BME280;1445;52.600;13.328;2023-02-02T10:53:14;100877.50;;;6.57;100.00
2875;BME280;1445;52.600;13.328;2023-02-02T10:55:54;100873.38;;;6.64;100.00
2875;BME280;1445;52.600;13.328;2023-02-02T10:58:31;100877.75;;;6.60;100.00
2875;BME280;1445;52.600;13.328;2023-02-02T11:01:02;100887.91;;;6.65;100.00
2875;BME280;1445;52.600;13.328;2023-02-02T11:03:32;100880.78;;;6.64;100.00
2875;BME280;1445;52.600;13.328;2023-02-02T11:06:00;100888.19;;;6.94;100.00
2875;BME280;1445;52.600;13.328;2023-02-02T11:08:47;100880.53;;;6.86;100.00
2875;BME280;1445;52.600;13.328;2023-02-02T11:11:26;100894.19;;;6.65;100.00
2875;BME280;1445;52.600;13.328;2023-02-02T11:16:36;100906.78;;;6.61;100.00
2875;BME280;1445;52.600;13.328;2023-02-02T11:19:22;100896.69;;;7.23;100.00
2875;BME280;1445;52.600;13.328;2023-02-02T11:22:02;100904.56;;;7.60;100.00
2875;BME280;1445;52.600;13.328;2023-02-02T11:24:34;100906.47;;;7.65;100.00
2875;BME280;1445;52.600;13.328;2023-02-02T11:27:13;100918.28;;;7.60;100.00
2875;BME280;1445;52.600;13.328;2023-02-02T11:29:52;100918.50;;;7.84;100.00
2875;BME280;1445;52.600;13.328;2023-02-02T11:35:12;100922.69;;;8.47;100.00
2875;BME280;1445;52.600;13.328;2023-02-02T11:42:49;100941.88;;;7.67;100.00
2875;BME280;1445;52.600;13.328;2023-02-02T11:48:13;100926.28;;;7.47;100.00
2875;BME280;1445;52.600;13.328;2023-02-02T11:50:48;100940.03;;;7.16;100.00
2875;BME280;1445;52.600;13.328;2023-02-02T11:53:24;100945.75;;;6.94;100.00
2875;BME280;1445;52.600;13.328;2023-02-02T11:55:51;100955.59;;;6.90;100.00
2875;BME280;1445;52.600;13.328;2023-02-02T12:00:50;100967.47;;;6.22;100.00
2875;BME280;1445;52.600;13.328;2023-02-02T12:03:45;100973.72;;;5.75;100.00
2875;BME280;1445;52.600;13.328;2023-02-02T12:06:22;100973.84;;;5.54;100.00
2875;BME280;1445;52.600;13.328;2023-02-02T12:08:48;100974.50;;;5.29;100.00
2875;BME280;1445;52.600;13.328;2023-02-02T12:11:42;101008.06;;;5.24;100.00
2875;BME280;1445;52.600;13.328;2023-02-02T12:14:33;101010.75;;;5.19;100.00
2875;BME280;1445;52.600;13.328;2023-02-02T12:20:21;101016.47;;;4.90;100.00
2875;BME280;1445;52.600;13.328;2023-02-02T12:26:30;101017.88;;;4.93;100.00
2875;BME280;1445;52.600;13.328;2023-02-02T12:40:12;101001.13;;;7.06;100.00
2875;BME280;1445;52.600;13.328;2023-02-02T12:42:52;101000.59;;;7.76;100.00
2875;BME280;1445;52.600;13.328;2023-02-02T12:57:05;101008.38;;;8.54;100.00
2875;BME280;1445;52.600;13.328;2023-02-02T13:10:17;101010.78;;;11.88;100.00
2875;BME280;1445;52.600;13.328;2023-02-02T13:13:08;101018.31;;;12.43;100.00
2875;BME280;1445;52.600;13.328;2023-02-02T13:15:41;101026.03;;;11.66;100.00
2875;BME280;1445;52.600;13.328;2023-02-02T13:18:20;101024.53;;;11.74;100.00
2875;BME280;1445;52.600;13.328;2023-02-02T13:23:35;101044.47;;;12.04;100.00
2875;BME280;1445;52.600;13.328;2023-02-02T13:26:19;101045.06;;;10.73;100.00
2875;BME280;1445;52.600;13.328;2023-02-02T13:28:52;101051.44;;;10.50;100.00
2875;BME280;1445;52.600;13.328;2023-02-02T13:31:58;101057.94;;;11.02;100.00
2875;BME280;1445;52.600;13.328;2023-02-02T13:37:11;101079.00;;;11.68;100.00
2875;BME280;1445;52.600;13.328;2023-02-02T13:39:45;101077.16;;;12.15;100.00
2875;BME280;1445;52.600;13.328;2023-02-02T13:42:16;101090.25;;;11.58;100.00
2875;BME280;1445;52.600;13.328;2023-02-02T13:44:49;101092.63;;;11.84;100.00
2875;BME280;1445;52.600;13.328;2023-02-02T13:49:57;101105.09;;;11.62;94.90
2875;BME280;1445;52.600;13.328;2023-02-02T13:55:33;101107.09;;;13.82;79.65
2875;BME280;1445;52.600;13.328;2023-02-02T14:00:54;101127.50;;;12.86;67.66
2875;BME280;1445;52.600;13.328;2023-02-02T14:03:34;101133.09;;;12.07;72.32
2875;BME280;1445;52.600;13.328;2023-02-02T14:08:44;101145.19;;;10.74;89.24
2875;BME280;1445;52.600;13.328;2023-02-02T14:11:17;101152.59;;;11.21;91.02
2875;BME280;1445;52.600;13.328;2023-02-02T14:13:48;101149.03;;;11.40;90.65
2875;BME280;1445;52.600;13.328;2023-02-02T14:19:05;101167.88;;;11.33;81.27
2875;BME280;1445;52.600;13.328;2023-02-02T14:29:34;101194.41;;;9.39;94.24
2875;BME280;1445;52.600;13.328;2023-02-02T14:34:49;101205.03;;;7.63;100.00
2875;BME280;1445;52.600;13.328;2023-02-02T14:45:43;101223.06;;;6.86;100.00
2875;BME280;1445;52.600;13.328;2023-02-02T14:53:19;101245.63;;;7.03;100.00
2875;BME280;1445;52.600;13.328;2023-02-02T15:06:11;101273.66;;;6.73;100.00
2875;BME280;1445;52.600;13.328;2023-02-02T15:08:38;101276.97;;;6.75;100.00
2875;BME280;1445;52.600;13.328;2023-02-02T15:11:06;101282.84;;;6.89;100.00
2875;BME280;1445;52.600;13.328;2023-02-02T15:14:12;101297.91;;;6.54;100.00
2875;BME280;1445;52.600;13.328;2023-02-02T15:16:40;101306.63;;;6.46;100.00
2875;BME280;1445;52.600;13.328;2023-02-02T15:19:14;101308.16;;;6.37;100.00
2875;BME280;1445;52.600;13.328;2023-02-02T15:21:45;101314.00;;;6.18;100.00
2875;BME280;1445;52.600;13.328;2023-02-02T15:24:18;101310.66;;;6.11;100.00
2875;BME280;1445;52.600;13.328;2023-02-02T15:26:46;101324.34;;;6.11;100.00
2875;BME280;1445;52.600;13.328;2023-02-02T15:29:29;101327.53;;;6.30;100.00
2875;BME280;1445;52.600;13.328;2023-02-02T15:31:56;101331.06;;;6.26;100.00
2875;BME280;1445;52.600;13.328;2023-02-02T15:34:45;101339.19;;;6.20;100.00
2875;BME280;1445;52.600;13.328;2023-02-02T15:37:14;101340.88;;;6.00;100.00
2875;BME280;1445;52.600;13.328;2023-02-02T15:39:50;101342.00;;;5.82;100.00
2875;BME280;1445;52.600;13.328;2023-02-02T15:42:35;101348.63;;;5.64;100.00
2875;BME280;1445;52.600;13.328;2023-02-02T15:45:48;101358.63;;;5.53;100.00
2875;BME280;1445;52.600;13.328;2023-02-02T15:50:50;101368.94;;;5.12;100.00
2875;BME280;1445;52.600;13.328;2023-02-02T15:53:46;101374.34;;;5.07;100.00
2875;BME280;1445;52.600;13.328;2023-02-02T15:56:19;101375.00;;;4.97;100.00
2875;BME280;1445;52.600;13.328;2023-02-02T15:58:52;101396.19;;;4.73;100.00
2875;BME280;1445;52.600;13.328;2023-02-02T16:01:21;101392.94;;;4.60;100.00
2875;BME280;1445;52.600;13.328;2023-02-02T16:06:16;101412.59;;;4.45;100.00
2875;BME280;1445;52.600;13.328;2023-02-02T16:08:42;101417.16;;;4.39;100.00